Time;durP1;ratioP1;P1;durP2;ratioP2;P2;SDS_P1;SDS_P2;PMS_P1;PMS_P2;Temp;Humidity;BMP_temperature;BMP_pressure;BME280_temperature;BME280_humidity;BME280_pressure;Samples;Min_cycle;Max_cycle;Signal;HPM_P1;HPM_P2
2022/01/29 00:02:19;;;;;;;19.45;9.77;;;5.90;71.50;;;;;;2511841;52;20969;-68
2022/01/29 00:04:46;;;;;;;15.85;9.43;;;5.90;71.50;;;;;;2449953;52;20902;-67
2022/01/29 00:07:13;;;;;;;16.48;9.43;;;5.90;71.50;;;;;;2365906;53;20930;-68
2022/01/29 00:09:39;;;;;;;15.73;9.07;;;5.90;71.40;;;;;;2617421;52;20914;-69
2022/01/29 00:12:06;;;;;;;13.75;7.65;;;5.90;71.30;;;;;;2366429;53;20986;-67
2022/01/29 00:14:33;;;;;;;14.00;8.23;;;5.90;71.30;;;;;;2618440;52;20938;-66
2022/01/29 00:17:03;;;;;;;15.48;8.30;;;5.90;71.20;;;;;;2365879;53;20914;-66
2022/01/29 00:19:29;;;;;;;13.98;8.10;;;5.90;71.30;;;;;;2377590;52;21019;-67
2022/01/29 00:21:58;;;;;;;13.75;7.80;;;5.80;71.90;;;;;;2352614;53;21397;-68
2022/01/29 00:24:25;;;;;;;15.40;8.70;;;5.80;71.20;;;;;;2366833;52;20992;-67
2022/01/29 00:26:53;;;;;;;16.20;8.38;;;5.80;71.30;;;;;;2359116;53;21340;-67
2022/01/29 00:29:22;;;;;;;16.15;9.45;;;5.80;71.40;;;;;;2500738;52;21099;-66
2022/01/29 00:31:48;;;;;;;14.87;8.25;;;5.80;71.30;;;;;;2356848;53;20977;-68
2022/01/29 00:34:15;;;;;;;15.75;8.20;;;5.80;71.30;;;;;;2613154;52;20986;-67
2022/01/29 00:36:41;;;;;;;15.13;9.27;;;5.80;71.30;;;;;;2412995;52;20998;-66
2022/01/29 00:39:10;;;;;;;14.32;8.05;;;5.80;71.20;;;;;;2366938;53;20966;-69
2022/01/29 00:41:36;;;;;;;15.05;9.02;;;5.80;71.20;;;;;;2366254;53;20996;-65
2022/01/29 00:44:03;;;;;;;16.37;8.48;;;5.80;71.20;;;;;;2366390;53;21505;-69
2022/01/29 00:46:30;;;;;;;14.10;8.23;;;5.70;71.10;;;;;;2365998;53;20950;-67
2022/01/29 00:48:56;;;;;;;13.98;7.72;;;5.70;71.10;;;;;;2366938;53;20985;-67
2022/01/29 00:51:22;;;;;;;14.52;7.93;;;5.70;71.20;;;;;;2339567;53;21545;-69
2022/01/29 00:53:48;;;;;;;13.07;7.45;;;5.70;71.20;;;;;;2366970;53;20950;-65
2022/01/29 00:56:15;;;;;;;16.12;7.85;;;5.70;71.20;;;;;;2366471;53;20915;-66
2022/01/29 00:58:41;;;;;;;14.63;7.32;;;5.70;71.30;;;;;;2367236;53;20926;-65
2022/01/29 01:01:09;;;;;;;14.87;7.37;;;5.70;71.30;;;;;;2367750;53;20942;-66
2022/01/29 01:03:35;;;;;;;14.55;7.75;;;5.70;71.30;;;;;;2322731;55;21503;-67
2022/01/29 01:06:01;;;;;;;12.98;6.80;;;5.70;71.30;;;;;;2438346;52;21387;-68
2022/01/29 01:08:27;;;;;;;13.77;6.80;;;5.70;71.40;;;;;;2395019;53;20939;-66
2022/01/29 01:10:54;;;;;;;11.82;6.55;;;5.70;71.50;;;;;;2542974;52;20911;-65
2022/01/29 01:13:20;;;;;;;13.52;7.40;;;5.70;71.50;;;;;;2369385;54;20920;-66
2022/01/29 01:15:46;;;;;;;11.48;6.25;;;5.70;72.20;;;;;;2639851;52;20956;-67
2022/01/29 01:18:12;;;;;;;11.95;6.47;;;5.70;71.50;;;;;;2391971;53;20971;-67
2022/01/29 01:20:39;;;;;;;11.73;6.15;;;5.70;71.60;;;;;;2652613;52;20939;-68
2022/01/29 01:23:06;;;;;;;13.38;6.60;;;5.70;71.60;;;;;;2395471;53;20931;-68
2022/01/29 01:25:32;;;;;;;10.15;5.60;;;5.70;71.60;;;;;;2505190;52;20975;-67
2022/01/29 01:28:00;;;;;;;12.98;6.85;;;5.80;71.70;;;;;;2371357;54;20911;-67
2022/01/29 01:30:26;;;;;;;10.88;5.65;;;5.80;71.70;;;;;;2395412;53;20983;-66
2022/01/29 01:32:53;;;;;;;10.65;5.68;;;5.80;71.70;;;;;;2371061;53;20943;-68
2022/01/29 01:35:33;;;;;;;10.82;5.70;;;5.80;71.70;;;;;;2394049;53;20932;-68
2022/01/29 01:38:15;;;;;;;11.12;5.87;;;5.80;71.60;;;;;;2395439;53;20928;-67
2022/01/29 01:40:45;;;;;;;;;;;5.80;71.50;;;;;;2398574;53;20954;-68
2022/01/29 01:43:11;;;;;;;9.77;5.03;;;5.80;70.70;;;;;;2395168;53;20562;-67
2022/01/29 01:45:40;;;;;;;10.52;5.68;;;5.80;71.20;;;;;;2394867;53;20971;-66
2022/01/29 01:48:06;;;;;;;11.93;5.93;;;5.80;71.10;;;;;;2394833;53;21018;-66
2022/01/29 01:50:36;;;;;;;12.43;6.37;;;5.80;71.10;;;;;;2393994;53;20952;-69
2022/01/29 01:53:05;;;;;;;10.23;5.45;;;5.80;71.10;;;;;;2394800;53;20931;-66
2022/01/29 01:55:31;;;;;;;10.73;5.97;;;5.80;71.10;;;;;;2394976;53;20944;-66
2022/01/29 01:57:58;;;;;;;11.10;5.90;;;5.80;71.10;;;;;;2374634;52;20944;-66
2022/01/29 02:00:27;;;;;;;10.77;6.10;;;5.80;71.10;;;;;;2652592;52;21007;-68
2022/01/29 02:02:54;;;;;;;10.93;5.97;;;5.80;71.00;;;;;;2370768;53;20935;-67
2022/01/29 02:05:20;;;;;;;11.80;6.35;;;5.70;71.00;;;;;;2393827;53;20936;-67
2022/01/29 02:07:49;;;;;;;12.27;6.32;;;5.70;71.10;;;;;;2370975;53;20935;-67
2022/01/29 02:10:17;;;;;;;11.10;6.37;;;5.70;71.00;;;;;;2652251;52;21051;-67
2022/01/29 02:12:55;;;;;;;9.93;5.37;;;5.70;71.10;;;;;;2370482;53;20988;-66
2022/01/29 02:15:22;;;;;;;10.98;5.87;;;5.70;70.90;;;;;;2395220;53;20931;-68
2022/01/29 02:17:48;;;;;;;9.10;5.32;;;5.70;71.10;;;;;;2395924;53;20971;-67
2022/01/29 02:20:15;;;;;;;10.80;6.20;;;5.70;71.00;;;;;;2394500;53;20971;-69
2022/01/29 02:22:42;;;;;;;11.05;6.12;;;5.70;71.00;;;;;;2394318;53;20931;-69
2022/01/29 02:25:27;;;;;;;10.50;5.70;;;5.70;70.90;;;;;;2395169;53;20912;-67
2022/01/29 02:27:53;;;;;;;9.82;5.53;;;5.70;70.60;;;;;;2395234;53;20997;-65
2022/01/29 02:30:19;;;;;;;15.48;7.72;;;5.70;70.70;;;;;;2380258;52;20990;-67
2022/01/29 02:32:46;;;;;;;10.30;6.28;;;5.70;70.70;;;;;;2632696;52;20927;-69
2022/01/29 02:35:12;;;;;;;12.63;6.40;;;5.60;70.50;;;;;;2391485;53;20951;-68
2022/01/29 02:37:39;;;;;;;12.07;6.35;;;5.60;70.50;;;;;;2375112;53;20987;-67
2022/01/29 02:40:06;;;;;;;11.90;5.90;;;5.60;70.50;;;;;;2372092;53;21004;-68
2022/01/29 02:42:32;;;;;;;13.25;7.35;;;5.60;70.50;;;;;;2396699;53;20911;-69
2022/01/29 02:44:59;;;;;;;15.80;8.10;;;5.60;70.50;;;;;;2467525;52;20935;-67
2022/01/29 02:47:31;;;;;;;12.75;7.32;;;5.50;70.40;;;;;;2394446;53;20920;-68
2022/01/29 02:49:57;;;;;;;;;;;5.50;70.30;;;;;;2384865;53;20949;-68
2022/01/29 02:52:24;;;;;;;9.80;5.30;;;5.50;69.60;;;;;;2385177;53;20073;-66
2022/01/29 02:54:53;;;;;;;10.35;6.30;;;5.50;70.00;;;;;;2395186;53;21972;-65
2022/01/29 02:57:19;;;;;;;11.30;6.22;;;5.40;69.60;;;;;;2395246;53;20916;-68
2022/01/29 02:59:45;;;;;;;11.50;6.72;;;5.40;69.40;;;;;;2371276;53;20993;-65
2022/01/29 03:02:12;;;;;;;13.52;7.47;;;5.30;69.10;;;;;;2393748;53;20907;-65
2022/01/29 03:04:38;;;;;;;12.73;6.55;;;5.30;69.00;;;;;;2394720;53;20928;-66
2022/01/29 03:07:04;;;;;;;11.25;6.35;;;5.20;68.70;;;;;;2379200;53;20976;-65
2022/01/29 03:09:32;;;;;;;12.48;6.60;;;5.10;68.50;;;;;;2642704;52;20920;-66
2022/01/29 03:11:59;;;;;;;13.35;7.30;;;5.10;68.60;;;;;;2463398;52;21504;-69
2022/01/29 03:14:26;;;;;;;10.82;5.75;;;5.00;68.50;;;;;;2394552;53;20924;-67
2022/01/29 03:16:52;;;;;;;11.73;6.25;;;4.90;68.50;;;;;;2652467;52;21255;-68
2022/01/29 03:19:18;;;;;;;12.10;6.15;;;4.90;68.50;;;;;;2394933;53;21027;-69
2022/01/29 03:21:44;;;;;;;12.43;6.05;;;4.80;68.50;;;;;;2395153;53;20928;-65
2022/01/29 03:24:11;;;;;;;13.48;7.05;;;4.70;68.50;;;;;;2394873;53;20907;-66
2022/01/29 03:26:37;;;;;;;10.95;5.75;;;4.70;68.70;;;;;;2394800;53;20955;-66
2022/01/29 03:29:03;;;;;;;12.85;6.18;;;4.60;68.70;;;;;;2621807;52;21081;-66
2022/01/29 03:31:29;;;;;;;14.98;6.72;;;4.60;68.80;;;;;;2392550;53;20943;-68
2022/01/29 03:33:55;;;;;;;13.13;6.68;;;4.50;68.90;;;;;;2394585;53;21503;-67
2022/01/29 03:36:22;;;;;;;13.35;7.75;;;4.50;69.10;;;;;;2394507;53;20939;-67
2022/01/29 03:38:48;;;;;;;16.02;7.65;;;4.50;69.10;;;;;;2652280;52;20932;-67
2022/01/29 03:41:14;;;;;;;12.25;6.28;;;4.40;69.10;;;;;;2395267;53;20924;-67
2022/01/29 03:43:45;;;;;;;13.82;6.45;;;4.40;69.10;;;;;;2395201;53;20932;-67
2022/01/29 03:46:12;;;;;;;13.00;6.68;;;4.30;69.20;;;;;;2396585;53;21491;-67
2022/01/29 03:48:38;;;;;;;12.57;7.15;;;4.30;69.30;;;;;;2652870;52;20983;-68
2022/01/29 03:51:04;;;;;;;15.18;7.80;;;4.30;69.40;;;;;;2394627;53;21476;-68
2022/01/29 03:53:34;;;;;;;13.35;6.82;;;4.30;69.50;;;;;;2393941;53;20975;-66
2022/01/29 03:56:00;;;;;;;11.23;6.37;;;4.20;69.40;;;;;;2388801;53;20989;-68
2022/01/29 03:58:26;;;;;;;13.23;6.95;;;4.20;69.40;;;;;;2376965;53;21031;-67
2022/01/29 04:00:52;;;;;;;15.45;7.90;;;4.20;69.40;;;;;;2395164;53;20943;-68
2022/01/29 04:03:19;;;;;;;17.17;8.77;;;4.20;69.50;;;;;;2395243;53;21023;-66
2022/01/29 04:05:46;;;;;;;16.23;8.05;;;4.10;69.40;;;;;;2394777;53;21479;-66
2022/01/29 04:08:16;;;;;;;15.13;8.27;;;4.10;69.40;;;;;;2396138;53;22185;-68
2022/01/29 04:10:43;;;;;;;14.70;8.02;;;4.10;69.40;;;;;;2370707;54;21479;-67
2022/01/29 04:13:11;;;;;;;16.75;7.97;;;4.10;69.50;;;;;;2395483;53;20986;-68
2022/01/29 04:15:45;;;;;;;15.23;8.00;;;4.00;69.50;;;;;;2395158;53;21516;-65
2022/01/29 04:18:11;;;;;;;14.20;7.50;;;4.00;69.50;;;;;;2448107;52;20943;-68
2022/01/29 04:20:38;;;;;;;14.77;7.18;;;4.00;69.60;;;;;;2395356;53;22072;-68
2022/01/29 04:23:07;;;;;;;11.50;6.55;;;4.00;70.30;;;;;;2395337;53;20935;-68
2022/01/29 04:25:33;;;;;;;13.05;6.50;;;4.00;69.70;;;;;;2395087;53;20927;-65
2022/01/29 04:28:00;;;;;;;12.70;6.10;;;4.00;69.70;;;;;;2394851;53;20927;-67
2022/01/29 04:30:31;;;;;;;13.32;6.70;;;3.90;69.60;;;;;;2646871;52;20959;-66
2022/01/29 04:33:41;;;;;;;13.85;6.97;;;3.90;69.60;;;;;;2395210;53;20980;-65
2022/01/29 04:36:10;;;;;;;16.60;6.78;;;3.90;69.50;;;;;;2395419;53;20920;-69
2022/01/29 04:38:36;;;;;;;15.05;6.80;;;3.90;69.50;;;;;;2394513;53;20962;-66
2022/01/29 04:41:04;;;;;;;16.37;6.45;;;3.80;69.40;;;;;;2395097;53;20978;-67
2022/01/29 04:43:34;;;;;;;14.45;7.07;;;3.80;69.50;;;;;;2395344;53;21705;-65
2022/01/29 04:46:02;;;;;;;11.65;5.90;;;3.80;69.50;;;;;;2394941;53;20948;-66
2022/01/29 04:48:28;;;;;;;13.02;7.15;;;3.70;69.30;;;;;;2395610;53;20924;-66
2022/01/29 04:50:54;;;;;;;15.02;7.50;;;3.70;69.30;;;;;;2394973;53;21002;-67
2022/01/29 04:53:23;;;;;;;13.52;7.60;;;3.70;69.40;;;;;;2395403;53;21038;-68
2022/01/29 04:55:50;;;;;;;16.70;8.07;;;3.70;69.50;;;;;;2386395;53;20909;-66
2022/01/29 04:58:16;;;;;;;13.32;7.35;;;3.60;69.60;;;;;;2374459;54;21006;-65
2022/01/29 05:00:42;;;;;;;10.73;5.53;;;3.60;69.80;;;;;;2414048;52;21002;-68
2022/01/29 05:03:13;;;;;;;14.20;7.07;;;3.60;69.90;;;;;;2395291;53;21386;-67
2022/01/29 05:05:39;;;;;;;15.27;8.15;;;3.60;70.00;;;;;;2617174;52;22078;-65
2022/01/29 05:08:06;;;;;;;19.50;9.10;;;3.60;70.20;;;;;;2394968;53;21743;-68
2022/01/29 05:10:32;;;;;;;17.48;8.63;;;3.60;70.50;;;;;;2376606;53;20938;-67
2022/01/29 05:13:05;;;;;;;18.67;8.10;;;3.60;70.70;;;;;;2370172;53;20955;-67
2022/01/29 05:15:39;;;;;;;20.23;9.43;;;3.60;70.90;;;;;;2381704;53;20980;-65
2022/01/29 05:29:04;;;;;;;25.55;13.02;;;3.80;71.80;;;;;;2376946;53;20927;-66
2022/01/29 05:31:31;;;;;;;25.08;13.27;;;3.80;71.90;;;;;;2384905;53;20989;-66
2022/01/29 05:33:57;;;;;;;26.27;13.57;;;3.80;72.10;;;;;;2381593;53;20928;-64
2022/01/29 05:36:24;;;;;;;27.65;12.88;;;3.90;72.30;;;;;;2395366;53;20963;-68
2022/01/29 05:38:51;;;;;;;25.75;12.15;;;3.90;72.40;;;;;;2395789;53;21493;-65
2022/01/29 05:41:17;;;;;;;21.12;10.80;;;4.00;72.50;;;;;;2394810;53;21372;-69
2022/01/29 05:43:44;;;;;;;26.10;12.07;;;4.00;72.50;;;;;;2395169;53;20923;-68
2022/01/29 05:46:11;;;;;;;23.73;12.32;;;4.00;72.50;;;;;;2390117;53;21886;-69
2022/01/29 05:48:38;;;;;;;24.92;12.68;;;4.10;72.60;;;;;;2376041;53;20988;-68
2022/01/29 05:51:04;;;;;;;23.35;13.07;;;4.10;72.60;;;;;;2382305;53;21899;-67
2022/01/29 05:53:30;;;;;;;23.00;12.57;;;4.20;72.60;;;;;;2395246;53;20912;-67
2022/01/29 05:55:57;;;;;;;27.40;13.20;;;4.20;72.60;;;;;;2395550;53;21004;-68
2022/01/29 05:58:23;;;;;;;25.73;14.20;;;4.30;72.60;;;;;;2395477;53;20959;-67
2022/01/29 06:00:50;;;;;;;26.20;13.00;;;4.30;72.60;;;;;;2394107;53;20943;-66
2022/01/29 06:03:16;;;;;;;24.80;13.73;;;4.30;73.20;;;;;;2369869;53;20935;-68
2022/01/29 06:05:51;;;;;;;26.00;14.20;;;4.40;72.60;;;;;;2400580;52;20963;-66
2022/01/29 06:08:19;;;;;;;27.40;13.95;;;4.40;72.50;;;;;;2393072;53;20947;-67
2022/01/29 06:10:45;;;;;;;28.45;14.00;;;4.50;72.60;;;;;;2394217;53;20919;-65
2022/01/29 06:13:13;;;;;;;31.08;15.00;;;4.50;72.50;;;;;;2394750;53;21702;-68
2022/01/29 06:15:43;;;;;;;26.62;14.30;;;4.50;72.40;;;;;;2394072;53;20943;-69
2022/01/29 06:18:12;;;;;;;30.77;16.17;;;4.60;72.40;;;;;;2376721;53;20937;-69
2022/01/29 06:20:39;;;;;;;26.60;13.68;;;4.60;72.40;;;;;;2389438;53;20963;-67
2022/01/29 06:23:11;;;;;;;26.40;14.00;;;4.60;72.30;;;;;;2395228;53;20960;-68
2022/01/29 06:25:37;;;;;;;29.52;14.68;;;4.60;72.20;;;;;;2397531;53;20982;-69
2022/01/29 06:28:03;;;;;;;27.33;14.25;;;4.70;72.20;;;;;;2395059;53;20967;-68
2022/01/29 06:30:30;;;;;;;32.15;16.48;;;4.70;72.20;;;;;;2395016;53;20971;-67
2022/01/29 06:32:56;;;;;;;31.42;16.20;;;4.70;72.00;;;;;;2380479;53;20974;-65
2022/01/29 06:35:23;;;;;;;28.38;13.95;;;4.70;71.70;;;;;;2384713;53;20923;-66
2022/01/29 06:37:49;;;;;;;32.30;15.35;;;4.70;71.60;;;;;;2395077;53;21038;-68
2022/01/29 06:40:15;;;;;;;28.73;15.60;;;4.70;71.50;;;;;;2464716;52;20916;-67
2022/01/29 06:42:41;;;;;;;29.08;15.00;;;4.70;71.40;;;;;;2495831;52;22194;-66
2022/01/29 06:45:08;;;;;;;31.25;16.25;;;4.60;71.20;;;;;;2394760;53;20982;-67
2022/01/29 06:47:34;;;;;;;32.92;16.25;;;4.60;71.10;;;;;;2396380;53;20927;-66
2022/01/29 06:50:00;;;;;;;27.80;15.07;;;4.60;71.10;;;;;;2394582;53;20927;-66
2022/01/29 06:52:27;;;;;;;26.17;14.02;;;4.60;71.10;;;;;;2371617;53;21020;-67
2022/01/29 06:54:53;;;;;;;26.45;13.45;;;4.60;71.30;;;;;;2369173;54;21107;-65
2022/01/29 06:57:19;;;;;;;23.52;13.48;;;4.60;71.40;;;;;;2398536;53;21481;-66
2022/01/29 06:59:48;;;;;;;25.80;14.38;;;4.60;71.50;;;;;;2641122;52;20947;-66
2022/01/29 07:02:15;;;;;;;28.73;14.57;;;4.60;71.70;;;;;;2394200;53;20924;-68
2022/01/29 07:04:41;;;;;;;28.25;14.23;;;4.60;71.70;;;;;;2394971;53;20900;-68
2022/01/29 07:07:08;;;;;;;25.90;13.85;;;4.60;71.80;;;;;;2395651;53;20895;-67
2022/01/29 07:09:34;;;;;;;26.40;14.15;;;4.60;71.90;;;;;;2490236;52;21501;-69
2022/01/29 07:12:08;;;;;;;25.42;12.52;;;4.60;71.90;;;;;;2378017;53;20993;-67
2022/01/29 07:14:38;;;;;;;20.55;12.00;;;4.60;72.10;;;;;;2358229;54;20981;-66
2022/01/29 07:17:22;;;;;;;21.23;11.27;;;4.70;72.20;;;;;;2393743;53;20983;-67
2022/01/29 07:19:49;;;;;;;22.02;12.00;;;4.70;72.90;;;;;;2394895;53;20970;-66
2022/01/29 07:22:26;;;;;;;23.52;12.77;;;4.70;72.20;;;;;;2652862;52;20983;-66
2022/01/29 07:24:52;;;;;;;22.50;12.70;;;4.70;72.20;;;;;;2394996;53;21777;-67
2022/01/29 07:27:19;;;;;;;24.17;12.95;;;4.80;72.20;;;;;;2393890;53;20951;-69
2022/01/29 07:29:46;;;;;;;22.45;11.75;;;4.80;72.30;;;;;;2368641;53;20939;-68
2022/01/29 07:32:12;;;;;;;21.23;11.57;;;4.80;72.30;;;;;;2395084;53;20948;-66
2022/01/29 07:34:41;;;;;;;19.27;10.23;;;4.90;72.40;;;;;;2555092;52;20943;-67
2022/01/29 07:37:07;;;;;;;18.85;10.25;;;4.90;72.50;;;;;;2391853;53;20946;-67
2022/01/29 07:39:33;;;;;;;17.77;10.05;;;4.90;72.50;;;;;;2372955;54;21007;-68
2022/01/29 07:41:59;;;;;;;17.37;9.38;;;4.90;72.50;;;;;;2395111;53;20916;-69
2022/01/29 07:44:26;;;;;;;19.45;10.30;;;5.00;72.60;;;;;;2371453;53;21028;-68
2022/01/29 07:46:52;;;;;;;19.80;10.77;;;5.00;72.50;;;;;;2394140;53;20919;-68
2022/01/29 07:49:21;;;;;;;19.10;9.95;;;5.00;72.40;;;;;;2395057;53;20951;-67
2022/01/29 07:51:47;;;;;;;18.62;9.40;;;5.10;72.50;;;;;;2394430;53;20936;-69
2022/01/29 07:54:14;;;;;;;15.98;8.45;;;5.10;72.50;;;;;;2397672;53;20979;-68
2022/01/29 07:56:40;;;;;;;17.80;9.43;;;5.20;72.60;;;;;;2395100;53;20931;-68
2022/01/29 07:59:07;;;;;;;18.25;8.63;;;5.20;72.60;;;;;;2461013;52;20945;-67
2022/01/29 08:01:33;;;;;;;15.05;8.27;;;5.20;72.50;;;;;;2479846;52;20931;-67
2022/01/29 08:03:59;;;;;;;16.12;8.98;;;5.20;72.60;;;;;;2394160;53;20896;-67
2022/01/29 08:06:29;;;;;;;16.65;9.15;;;5.30;72.60;;;;;;2389314;52;21040;-65
2022/01/29 08:08:56;;;;;;;17.35;8.82;;;5.30;72.60;;;;;;2383710;53;20916;-67
2022/01/29 08:11:22;;;;;;;19.65;10.18;;;5.40;72.80;;;;;;2394396;53;20983;-68
2022/01/29 08:13:49;;;;;;;20.27;10.60;;;5.40;72.80;;;;;;2395498;53;20923;-68
2022/01/29 08:16:18;;;;;;;15.82;8.88;;;5.50;72.80;;;;;;2546130;52;21972;-67
2022/01/29 08:18:45;;;;;;;15.63;8.50;;;5.50;72.80;;;;;;2502536;52;20985;-67
2022/01/29 08:21:13;;;;;;;15.13;8.50;;;5.50;72.80;;;;;;2463918;53;20950;-66
2022/01/29 08:23:40;;;;;;;17.08;9.40;;;5.60;72.80;;;;;;2395286;53;20907;-68
2022/01/29 08:26:06;;;;;;;15.80;8.35;;;5.60;72.80;;;;;;2395461;53;21468;-66
2022/01/29 08:28:32;;;;;;;18.92;9.75;;;5.70;72.90;;;;;;2438604;52;20939;-68
2022/01/29 08:30:59;;;;;;;17.35;9.05;;;5.70;72.80;;;;;;2394896;53;20925;-68
2022/01/29 08:33:25;;;;;;;17.75;9.15;;;5.70;72.80;;;;;;2395369;53;21340;-66
2022/01/29 08:35:52;;;;;;;14.55;8.15;;;5.80;72.70;;;;;;2395035;53;20927;-68
2022/01/29 08:38:19;;;;;;;13.62;7.57;;;5.80;72.90;;;;;;2544036;52;20930;-66
2022/01/29 08:40:46;;;;;;;14.00;7.87;;;5.90;72.90;;;;;;2393319;53;20927;-68
2022/01/29 08:43:12;;;;;;;16.87;9.07;;;5.90;72.90;;;;;;2391167;53;20953;-65
2022/01/29 08:45:38;;;;;;;15.98;9.15;;;5.90;72.60;;;;;;2370909;53;20991;-66
2022/01/29 08:48:05;;;;;;;16.52;9.05;;;6.00;73.20;;;;;;2392221;53;21803;-67
2022/01/29 08:50:31;;;;;;;17.60;9.45;;;6.00;72.20;;;;;;2393316;53;20927;-66
2022/01/29 08:52:57;;;;;;;14.05;7.95;;;6.10;72.30;;;;;;2636486;52;20932;-66
2022/01/29 08:55:24;;;;;;;14.35;8.52;;;6.10;72.30;;;;;;2375643;53;20937;-68
2022/01/29 08:57:50;;;;;;;12.98;7.97;;;6.10;72.40;;;;;;2388113;53;20936;-68
2022/01/29 09:00:17;;;;;;;14.20;8.57;;;6.20;72.70;;;;;;2377125;53;21749;-65
2022/01/29 09:02:43;;;;;;;14.52;8.07;;;6.20;72.40;;;;;;2385728;53;21484;-66
2022/01/29 09:05:11;;;;;;;11.68;6.68;;;6.20;72.30;;;;;;2392884;53;21051;-68
2022/01/29 09:07:37;;;;;;;11.80;7.00;;;6.30;72.30;;;;;;2393171;53;20976;-67
2022/01/29 09:10:04;;;;;;;12.48;7.00;;;6.30;72.20;;;;;;2393426;53;20933;-69
2022/01/29 09:12:30;;;;;;;10.80;6.68;;;6.30;72.20;;;;;;2482815;52;20923;-67
2022/01/29 09:14:56;;;;;;;10.93;6.40;;;6.40;72.70;;;;;;2393020;53;20920;-65
2022/01/29 09:17:23;;;;;;;11.25;6.93;;;6.40;71.90;;;;;;2394519;53;20927;-69
2022/01/29 09:19:49;;;;;;;14.30;8.00;;;6.40;71.80;;;;;;2395053;53;20931;-66
2022/01/29 09:22:16;;;;;;;12.93;6.95;;;6.40;72.20;;;;;;2395653;53;20951;-65
2022/01/29 09:24:43;;;;;;;13.40;7.65;;;6.40;71.60;;;;;;2645326;52;20970;-66
2022/01/29 09:27:10;;;;;;;12.23;6.85;;;6.40;71.70;;;;;;2394594;53;21038;-65
2022/01/29 09:29:40;;;;;;;12.00;6.82;;;6.50;71.80;;;;;;2393522;53;21461;-68
2022/01/29 09:32:07;;;;;;;11.18;6.65;;;6.50;71.80;;;;;;2394328;53;21003;-68
2022/01/29 09:34:33;;;;;;;10.57;6.05;;;6.50;72.00;;;;;;2394542;53;21023;-68
2022/01/29 09:36:59;;;;;;;12.77;6.68;;;6.60;71.90;;;;;;2496520;52;21001;-69
2022/01/29 09:39:26;;;;;;;12.32;6.72;;;6.60;71.80;;;;;;2413389;53;20919;-69
2022/01/29 09:41:53;;;;;;;11.05;5.97;;;6.60;71.70;;;;;;2599170;52;1371232;-68
2022/01/29 09:44:20;;;;;;;11.15;5.78;;;6.70;71.70;;;;;;2544182;52;20927;-67
2022/01/29 09:46:47;;;;;;;11.57;6.87;;;6.70;71.70;;;;;;2417894;52;20975;-70
2022/01/29 09:49:13;;;;;;;10.07;6.50;;;6.70;71.60;;;;;;2404263;52;21479;-68
2022/01/29 09:51:42;;;;;;;11.85;6.22;;;6.70;71.60;;;;;;2394185;53;20995;-68
2022/01/29 09:54:08;;;;;;;10.25;5.78;;;6.80;72.20;;;;;;2393699;53;21487;-67
2022/01/29 09:56:34;;;;;;;8.63;5.00;;;6.80;72.20;;;;;;2394321;53;20928;-68
2022/01/29 09:59:01;;;;;;;10.02;5.15;;;6.90;72.40;;;;;;2396039;53;21011;-68
2022/01/29 10:01:28;;;;;;;7.85;4.57;;;7.00;72.40;;;;;;2393942;53;21630;-69
2022/01/29 10:04:01;;;;;;;8.75;4.95;;;7.00;72.30;;;;;;2395292;53;20947;-66
2022/01/29 10:06:27;;;;;;;8.27;4.80;;;7.10;71.90;;;;;;2393809;53;20943;-66
2022/01/29 10:08:54;;;;;;;7.07;4.15;;;7.10;71.90;;;;;;2394231;53;20931;-68
2022/01/29 10:11:21;;;;;;;11.38;5.53;;;7.10;72.00;;;;;;2394071;53;20939;-68
2022/01/29 10:13:48;;;;;;;8.18;4.85;;;7.20;71.80;;;;;;2394180;53;21090;-69
2022/01/29 10:16:19;;;;;;;8.10;4.53;;;7.20;72.10;;;;;;2395010;53;20978;-67
2022/01/29 10:20:43;;;;;;;9.27;5.23;;;7.30;71.80;;;;;;2394572;53;21408;-67
2022/01/29 10:23:10;;;;;;;8.98;4.65;;;7.40;70.50;;;;;;2395021;53;20911;-69
2022/01/29 10:25:41;;;;;;;9.05;4.62;;;7.40;71.60;;;;;;2392824;53;20939;-69
2022/01/29 10:28:13;;;;;;;8.55;4.80;;;7.50;71.90;;;;;;2497787;52;20952;-67
2022/01/29 10:31:50;;;;;;;7.97;4.18;;;7.60;71.70;;;;;;2371961;53;20927;-67
2022/01/29 10:34:22;;;;;;;6.95;4.07;;;7.70;70.80;;;;;;2394034;53;21492;-69
2022/01/29 10:37:20;;;;;;;7.43;4.20;;;7.70;72.10;;;;;;2616708;52;21043;-67
2022/01/29 10:39:53;;;;;;;7.87;4.53;;;7.80;70.90;;;;;;2396747;52;20919;-70
2022/01/29 10:42:22;;;;;;;7.85;5.15;;;7.80;70.80;;;;;;2349330;54;20962;-67
2022/01/29 10:44:50;;;;;;;6.70;3.92;;;7.80;70.20;;;;;;2393311;53;20931;-69
2022/01/29 10:47:17;;;;;;;10.45;4.53;;;7.80;70.20;;;;;;2395016;53;21010;-68
2022/01/29 10:49:54;;;;;;;14.02;8.80;;;7.80;70.30;;;;;;2394823;53;20916;-69
2022/01/29 10:52:26;;;;;;;9.55;5.75;;;7.80;70.00;;;;;;2394700;53;20971;-67
2022/01/29 10:54:59;;;;;;;8.63;4.97;;;7.70;70.10;;;;;;2395214;53;20943;-69
2022/01/29 10:58:44;;;;;;;7.35;4.40;;;7.80;70.10;;;;;;2395161;53;20983;-68
2022/01/29 11:01:22;;;;;;;8.75;4.80;;;7.80;69.40;;;;;;2376761;53;20949;-67
2022/01/29 11:03:50;;;;;;;9.65;4.90;;;7.80;69.70;;;;;;2391405;53;20935;-68
2022/01/29 11:06:19;;;;;;;15.57;6.93;;;7.70;70.10;;;;;;2394805;53;20955;-66
2022/01/29 11:08:45;;;;;;;11.30;5.87;;;7.70;69.00;;;;;;2394469;53;20919;-67
2022/01/29 11:11:12;;;;;;;9.90;5.32;;;7.70;68.90;;;;;;2383406;53;20956;-66
2022/01/29 11:13:47;;;;;;;8.75;5.32;;;7.60;68.60;;;;;;2376331;53;21088;-69
2022/01/29 11:16:13;;;;;;;9.27;5.75;;;7.50;68.40;;;;;;2352988;53;20940;-67
2022/01/29 11:18:40;;;;;;;12.68;6.20;;;7.50;68.40;;;;;;2394332;53;20975;-68
2022/01/29 11:21:06;;;;;;;12.27;6.47;;;7.50;68.50;;;;;;2394394;53;21368;-69
2022/01/29 11:23:32;;;;;;;10.55;5.97;;;7.40;68.80;;;;;;2394967;53;20916;-67
2022/01/29 11:25:59;;;;;;;10.95;6.20;;;7.40;69.00;;;;;;2395150;53;20991;-66
2022/01/29 11:28:27;;;;;;;12.68;7.47;;;7.40;69.10;;;;;;2394767;53;20920;-67
2022/01/29 11:37:46;;;;;;;14.02;6.70;;;7.40;69.30;;;;;;2370612;53;21010;-66
2022/01/29 11:40:32;;;;;;;13.05;6.18;;;7.30;68.60;;;;;;2395534;53;21618;-68
2022/01/29 11:44:06;;;;;;;10.82;6.03;;;7.20;68.50;;;;;;2396023;52;20935;-67
2022/01/29 11:46:33;;;;;;;11.07;5.35;;;7.20;68.40;;;;;;2379605;53;20989;-66
2022/01/29 11:49:17;;;;;;;8.68;4.90;;;7.10;69.00;;;;;;2384967;53;20935;-67
2022/01/29 11:51:53;;;;;;;10.50;5.90;;;7.10;68.40;;;;;;2363150;54;21405;-66
2022/01/29 11:54:24;;;;;;;9.65;5.20;;;7.10;68.90;;;;;;2342863;53;20936;-67
2022/01/29 11:57:05;;;;;;;9.80;5.18;;;7.10;69.10;;;;;;2370876;53;20919;-66
2022/01/29 11:59:33;;;;;;;10.40;5.30;;;7.10;69.00;;;;;;2617585;52;20979;-68
2022/01/29 12:02:03;;;;;;;10.45;5.50;;;7.10;69.10;;;;;;2366465;54;21031;-70
2022/01/29 12:05:07;;;;;;;9.02;5.10;;;7.10;69.50;;;;;;2362639;53;21773;-68
2022/01/29 12:07:37;;;;;;;10.05;5.37;;;7.20;69.20;;;;;;2365897;53;21459;-67
2022/01/29 12:10:12;;;;;;;11.15;5.35;;;7.20;69.80;;;;;;2366389;53;20933;-68
2022/01/29 12:12:43;;;;;;;9.98;5.00;;;7.20;69.90;;;;;;2367433;53;21048;-68
2022/01/29 12:15:54;;;;;;;9.60;4.65;;;7.20;70.00;;;;;;2359192;53;20989;-66
2022/01/29 12:18:24;;;;;;;10.13;5.47;;;7.30;69.40;;;;;;2360987;53;21012;-69
2022/01/29 12:20:50;;;;;;;10.15;6.00;;;7.30;69.80;;;;;;2360910;53;20991;-68
2022/01/29 12:23:17;;;;;;;10.05;5.37;;;7.30;69.70;;;;;;2366509;54;20934;-67
2022/01/29 12:25:54;;;;;;;13.62;6.47;;;7.30;70.10;;;;;;2471975;52;20993;-66
2022/01/29 12:28:21;;;;;;;12.02;6.28;;;7.40;69.90;;;;;;2366718;54;21007;-69
2022/01/29 12:30:47;;;;;;;10.13;5.22;;;7.40;69.90;;;;;;2376060;53;21778;-68
2022/01/29 12:33:21;;;;;;;9.82;5.65;;;7.40;70.20;;;;;;2329028;53;20944;-67
2022/01/29 12:35:58;;;;;;;9.30;4.90;;;7.50;70.30;;;;;;2343919;54;21018;-67
2022/01/29 12:38:32;;;;;;;10.93;6.10;;;7.50;70.40;;;;;;2365555;53;20974;-68
2022/01/29 12:41:02;;;;;;;12.73;6.32;;;7.60;70.80;;;;;;2367098;53;20922;-68
2022/01/29 12:43:39;;;;;;;10.00;5.40;;;7.60;70.50;;;;;;2336027;53;21042;-65
2022/01/29 12:46:13;;;;;;;8.98;5.15;;;7.70;70.40;;;;;;2353995;54;20982;-69
2022/01/29 12:48:40;;;;;;;9.07;5.35;;;7.70;70.70;;;;;;2382340;53;21514;-68
2022/01/29 12:51:11;;;;;;;10.85;5.68;;;7.70;70.50;;;;;;2393595;53;21015;-70
2022/01/29 12:53:39;;;;;;;12.23;6.35;;;7.80;70.70;;;;;;2394971;52;21002;-68
2022/01/29 12:56:07;;;;;;;12.10;6.07;;;7.80;70.40;;;;;;2415107;52;20996;-66
2022/01/29 12:58:43;;;;;;;11.85;6.37;;;7.80;70.30;;;;;;2394832;53;21764;-66
2022/01/29 13:01:11;;;;;;;10.25;5.93;;;7.80;70.20;;;;;;2393961;53;21050;-66
2022/01/29 13:03:38;;;;;;;10.32;5.80;;;7.90;70.50;;;;;;2394033;53;20944;-67
2022/01/29 13:06:16;;;;;;;11.05;5.15;;;7.90;70.80;;;;;;2393945;53;22099;-69
2022/01/29 13:08:42;;;;;;;9.75;5.22;;;8.00;70.60;;;;;;2370030;54;21392;-66
2022/01/29 13:11:26;;;;;;;11.20;5.80;;;8.00;70.80;;;;;;2393830;53;21070;-66
2022/01/29 13:13:54;;;;;;;8.80;4.90;;;8.10;70.40;;;;;;2468126;52;21066;-67
2022/01/29 13:16:21;;;;;;;11.20;5.87;;;8.10;70.80;;;;;;2394750;53;20982;-66
2022/01/29 13:18:47;;;;;;;10.30;5.45;;;8.20;71.00;;;;;;2395091;53;20955;-66